createdAt,value
2017-12-05T00:00:45.904Z,50.95
2017-12-05T00:03:12.164Z,51.03
2017-12-05T00:05:38.655Z,51.00
2017-12-05T00:08:05.944Z,50.99
2017-12-05T00:10:32.180Z,51.04
2017-12-05T00:13:01.814Z,50.96
2017-12-05T00:15:28.189Z,50.93
2017-12-05T00:17:54.384Z,51.20
2017-12-05T00:20:20.555Z,51.15
2017-12-05T00:22:47.786Z,51.07
2017-12-05T00:25:13.984Z,50.99
2017-12-05T00:27:40.903Z,50.84
2017-12-05T00:30:07.200Z,50.85
2017-12-05T00:32:34.718Z,50.88
2017-12-05T00:35:00.905Z,50.87
2017-12-05T00:37:28.183Z,50.80
2017-12-05T00:39:55.228Z,50.75
2017-12-05T00:42:21.431Z,50.78
2017-12-05T00:44:47.864Z,50.87
2017-12-05T00:47:14.080Z,50.83
2017-12-05T00:49:40.315Z,50.93
2017-12-05T00:52:06.638Z,51.15
2017-12-05T00:54:32.844Z,50.82
2017-12-05T00:56:59.037Z,50.66
2017-12-05T00:59:25.273Z,50.60
2017-12-05T01:01:51.486Z,50.54
2017-12-05T01:04:17.709Z,50.55
2017-12-05T01:06:43.975Z,50.45
2017-12-05T01:09:10.174Z,50.42
2017-12-05T01:11:36.623Z,50.50
2017-12-05T01:14:02.857Z,50.46
2017-12-05T01:16:29.276Z,50.48
2017-12-05T01:18:55.487Z,50.49
2017-12-05T01:21:21.823Z,50.55
2017-12-05T01:23:48.033Z,50.59
2017-12-05T01:26:14.231Z,50.60
2017-12-05T01:28:40.556Z,50.64
2017-12-05T01:31:06.750Z,50.52
2017-12-05T01:33:32.973Z,50.50
2017-12-05T01:35:59.297Z,50.53
2017-12-05T01:38:25.494Z,50.43
2017-12-05T01:40:51.697Z,50.49
2017-12-05T01:43:18.180Z,50.47
2017-12-05T01:45:44.376Z,50.44
2017-12-05T01:48:10.674Z,50.47
2017-12-05T01:50:37.361Z,50.58
2017-12-05T01:53:03.594Z,50.78
2017-12-05T01:55:29.777Z,50.73
2017-12-05T01:57:56.034Z,50.74
2017-12-05T02:00:22.220Z,51.12
2017-12-05T02:02:48.721Z,51.11
2017-12-05T02:05:15.316Z,51.22
2017-12-05T02:07:41.534Z,51.34
2017-12-05T02:10:07.897Z,51.26
2017-12-05T02:12:34.477Z,51.33
2017-12-05T02:15:00.681Z,51.50
2017-12-05T02:17:26.985Z,51.58
2017-12-05T02:19:53.241Z,51.56
2017-12-05T02:22:19.522Z,51.71
2017-12-05T02:24:45.721Z,51.77
2017-12-05T02:27:11.967Z,51.94
2017-12-05T02:29:38.160Z,51.87
2017-12-05T02:32:04.353Z,51.99
2017-12-05T02:34:30.600Z,52.00
2017-12-05T02:36:56.792Z,52.04
2017-12-05T02:39:22.966Z,51.95
2017-12-05T02:41:49.295Z,52.15
2017-12-05T02:44:15.571Z,52.14
2017-12-05T02:46:41.786Z,52.22
2017-12-05T02:49:08.287Z,52.25
2017-12-05T02:51:34.521Z,52.82
2017-12-05T02:54:00.953Z,53.00
2017-12-05T02:56:27.581Z,52.78
2017-12-05T02:58:53.772Z,52.60
2017-12-05T03:01:20.235Z,52.43
2017-12-05T03:03:46.490Z,52.24
2017-12-05T03:06:12.718Z,52.17
2017-12-05T03:08:38.917Z,52.20
2017-12-05T03:11:05.171Z,52.22
2017-12-05T03:13:31.396Z,52.26
2017-12-05T03:15:57.727Z,52.23
2017-12-05T03:18:23.925Z,52.30
2017-12-05T03:20:50.132Z,52.23
2017-12-05T03:23:16.471Z,52.11
2017-12-05T03:25:42.676Z,51.98
2017-12-05T03:28:08.862Z,52.11
2017-12-05T03:30:35.104Z,52.24
2017-12-05T03:33:01.331Z,52.23
2017-12-05T03:35:27.531Z,52.05
2017-12-05T03:37:54.013Z,52.17
2017-12-05T03:40:20.232Z,52.07
2017-12-05T03:42:46.406Z,52.17
2017-12-05T03:45:12.752Z,51.99
2017-12-05T03:47:38.957Z,52.13
2017-12-05T03:50:05.184Z,52.00
2017-12-05T03:52:31.839Z,51.87
2017-12-05T03:54:58.037Z,52.16
2017-12-05T03:57:24.228Z,52.26
2017-12-05T03:59:50.556Z,52.18
2017-12-05T04:02:16.782Z,52.17
2017-12-05T04:04:42.978Z,52.14
2017-12-05T04:07:09.490Z,52.15
2017-12-05T04:09:35.693Z,52.32
2017-12-05T04:12:01.878Z,52.08
2017-12-05T04:14:28.138Z,52.24
2017-12-05T04:16:54.349Z,52.25
2017-12-05T04:19:20.795Z,52.17
2017-12-05T04:21:47.036Z,52.20
2017-12-05T04:24:13.252Z,52.08
2017-12-05T04:26:39.432Z,52.64
2017-12-05T04:29:05.681Z,52.44
2017-12-05T04:31:31.881Z,52.30
2017-12-05T04:33:58.115Z,52.36
2017-12-05T04:36:24.374Z,52.23
2017-12-05T04:38:50.569Z,52.27
2017-12-05T04:41:16.787Z,52.26
2017-12-05T04:43:43.122Z,52.22
2017-12-05T04:46:09.339Z,52.10
2017-12-05T04:48:35.526Z,52.14
2017-12-05T04:51:01.839Z,52.27
2017-12-05T04:53:28.053Z,52.15
2017-12-05T04:55:54.244Z,52.16
2017-12-05T04:58:20.491Z,52.20
2017-12-05T05:00:46.737Z,52.31
2017-12-05T05:03:13.188Z,52.50
2017-12-05T05:05:39.742Z,52.46
2017-12-05T05:08:06.176Z,52.57
2017-12-05T05:10:32.354Z,52.62
2017-12-05T05:12:58.942Z,52.75
2017-12-05T05:15:25.141Z,52.75
2017-12-05T05:17:51.342Z,52.82
2017-12-05T05:20:17.914Z,52.68
2017-12-05T05:22:44.101Z,52.67
2017-12-05T05:25:10.288Z,52.58
2017-12-05T05:27:36.596Z,52.50
2017-12-05T05:30:02.857Z,52.54
2017-12-05T05:32:29.085Z,53.66
2017-12-05T05:34:55.474Z,53.20
2017-12-05T05:37:21.694Z,52.92
2017-12-05T05:39:47.926Z,52.82
2017-12-05T05:42:14.182Z,52.86
2017-12-05T05:44:40.435Z,52.80
2017-12-05T05:47:06.624Z,52.94
2017-12-05T05:49:32.946Z,52.82
2017-12-05T05:51:59.127Z,52.28
2017-12-05T05:54:25.357Z,52.06
2017-12-05T05:56:51.611Z,51.90
2017-12-05T05:59:17.805Z,51.85
2017-12-05T06:01:44.000Z,51.74
2017-12-05T06:04:10.351Z,51.79
2017-12-05T06:06:36.779Z,51.69
2017-12-05T06:09:03.106Z,51.64
2017-12-05T06:11:29.437Z,51.55
2017-12-05T06:13:55.649Z,51.52
2017-12-05T06:16:21.848Z,51.47
2017-12-05T06:18:48.328Z,51.39
2017-12-05T06:21:14.761Z,51.84
2017-12-05T06:23:40.952Z,51.89
2017-12-05T06:26:07.241Z,51.77
2017-12-05T06:28:33.448Z,51.69
2017-12-05T06:30:59.650Z,51.62
2017-12-05T06:33:25.997Z,51.63
2017-12-05T06:35:52.411Z,51.56
2017-12-05T06:38:18.587Z,51.49
2017-12-05T06:40:45.085Z,51.45
2017-12-05T06:43:11.531Z,51.41
2017-12-05T06:45:37.940Z,51.40
2017-12-05T06:48:04.275Z,51.33
2017-12-05T06:50:30.515Z,51.30
2017-12-05T06:52:56.751Z,51.45
2017-12-05T06:55:23.083Z,51.33
2017-12-05T06:57:49.489Z,51.24
2017-12-05T07:00:15.710Z,51.04
2017-12-05T07:02:41.975Z,51.02
2017-12-05T07:05:08.183Z,51.04
2017-12-05T07:07:34.372Z,50.98
2017-12-05T07:10:00.680Z,50.93
2017-12-05T07:12:26.900Z,51.11
2017-12-05T07:14:53.420Z,51.58
2017-12-05T07:17:19.668Z,51.64
2017-12-05T07:19:45.869Z,51.64
2017-12-05T07:22:12.080Z,51.62
2017-12-05T07:24:38.691Z,51.56
2017-12-05T07:27:04.905Z,51.56
2017-12-05T07:29:31.100Z,51.39
2017-12-05T07:31:57.665Z,51.26
2017-12-05T07:34:23.859Z,51.14
2017-12-05T07:36:50.041Z,51.05
2017-12-05T07:39:16.365Z,51.00
2017-12-05T07:41:42.811Z,50.95
2017-12-05T07:44:09.092Z,50.85
2017-12-05T07:46:35.385Z,50.81
2017-12-05T07:49:01.593Z,50.74
2017-12-05T07:51:27.808Z,50.68
2017-12-05T07:53:54.162Z,50.65
2017-12-05T07:56:20.764Z,50.54
2017-12-05T07:58:46.986Z,50.64
2017-12-05T08:01:13.471Z,50.63
2017-12-05T08:03:39.917Z,50.57
2017-12-05T08:06:06.128Z,50.50
2017-12-05T08:08:32.449Z,50.48
2017-12-05T08:10:58.677Z,50.42
2017-12-05T08:13:25.128Z,50.39
2017-12-05T08:15:51.461Z,50.37
2017-12-05T08:18:17.653Z,50.31
2017-12-05T08:20:43.870Z,50.35
2017-12-05T08:23:10.199Z,50.31
2017-12-05T08:25:36.451Z,50.25
2017-12-05T08:28:02.718Z,50.28
2017-12-05T08:30:28.970Z,50.28
2017-12-05T08:32:55.173Z,50.21
2017-12-05T08:35:21.386Z,50.15
2017-12-05T08:37:47.765Z,50.17
2017-12-05T08:40:13.968Z,50.15
2017-12-05T08:42:40.172Z,50.15
2017-12-05T08:45:06.442Z,50.13
2017-12-05T08:47:32.643Z,50.07
2017-12-05T08:49:58.838Z,50.04
2017-12-05T08:52:25.101Z,50.00
2017-12-05T08:54:51.289Z,49.94
2017-12-05T08:57:17.533Z,49.95
2017-12-05T08:59:43.786Z,49.91
2017-12-05T09:02:09.975Z,49.88
2017-12-05T09:04:36.186Z,49.82
2017-12-05T09:07:02.520Z,49.83
2017-12-05T09:09:28.745Z,49.85
2017-12-05T09:11:55.000Z,49.81
2017-12-05T09:14:21.258Z,49.82
2017-12-05T09:16:47.493Z,49.75
2017-12-05T09:19:14.076Z,49.78
2017-12-05T09:21:40.291Z,49.70
2017-12-05T09:24:06.715Z,49.62
2017-12-05T09:26:32.978Z,49.59
2017-12-05T09:28:59.170Z,49.55
2017-12-05T09:31:25.373Z,49.48
2017-12-05T09:33:51.631Z,49.43
2017-12-05T09:36:18.099Z,49.39
2017-12-05T09:38:44.534Z,49.41
2017-12-05T09:41:10.792Z,49.42
2017-12-05T09:43:37.234Z,49.36
2017-12-05T09:46:03.444Z,49.31
2017-12-05T09:48:29.794Z,49.31
2017-12-05T09:50:56.023Z,49.32
2017-12-05T09:53:22.223Z,49.40
2017-12-05T09:55:48.548Z,49.36
2017-12-05T09:58:14.799Z,49.29
2017-12-05T10:00:41.025Z,49.27
2017-12-05T10:03:07.540Z,49.26
2017-12-05T10:05:33.737Z,49.26
2017-12-05T10:08:00.179Z,49.19
2017-12-05T10:10:26.517Z,49.14
2017-12-05T10:12:52.714Z,49.12
2017-12-05T10:15:18.926Z,49.05
2017-12-05T10:17:45.162Z,49.04
2017-12-05T10:20:11.602Z,48.99
2017-12-05T10:22:38.290Z,49.00
2017-12-05T10:25:04.509Z,49.02
2017-12-05T10:27:30.697Z,49.00
2017-12-05T10:29:57.023Z,49.00
2017-12-05T10:32:23.218Z,48.91
2017-12-05T10:34:49.449Z,48.85
2017-12-05T10:37:15.710Z,48.86
2017-12-05T10:39:41.914Z,48.82
2017-12-05T10:42:08.119Z,48.78
2017-12-05T10:47:06.263Z,48.74
2017-12-05T10:49:32.469Z,48.79
2017-12-05T10:51:58.809Z,48.73
2017-12-05T10:54:25.062Z,48.74
2017-12-05T10:56:51.289Z,48.71
2017-12-05T10:59:17.574Z,48.68
2017-12-05T11:01:43.771Z,48.65
2017-12-05T11:04:09.972Z,48.76
2017-12-05T11:06:36.233Z,48.81
2017-12-05T11:09:08.578Z,48.82
2017-12-05T11:11:34.822Z,48.86
2017-12-05T11:14:01.143Z,48.89
2017-12-05T11:16:28.830Z,48.85
2017-12-05T11:18:55.034Z,48.86
2017-12-05T11:21:21.337Z,48.82
2017-12-05T11:23:47.581Z,49.31
2017-12-05T11:26:13.887Z,49.52
2017-12-05T11:28:40.123Z,49.58
2017-12-05T11:31:06.356Z,49.62
2017-12-05T11:33:32.637Z,49.66
2017-12-05T11:35:58.851Z,49.75
2017-12-05T11:38:25.066Z,49.82
2017-12-05T11:40:51.350Z,49.93
2017-12-05T11:43:17.645Z,50.01
2017-12-05T11:45:43.912Z,50.10
2017-12-05T11:48:10.218Z,50.14
2017-12-05T11:50:36.650Z,50.23
2017-12-05T11:53:03.003Z,50.22
2017-12-05T11:55:29.317Z,50.10
2017-12-05T11:57:55.502Z,50.09
2017-12-05T12:00:21.785Z,50.00
2017-12-05T12:02:48.042Z,49.78
2017-12-05T12:05:14.274Z,50.24
2017-12-05T12:07:40.517Z,50.24
2017-12-05T12:10:06.847Z,50.16
2017-12-05T12:12:33.044Z,49.96
2017-12-05T12:14:59.270Z,51.09
2017-12-05T12:17:25.529Z,51.38
2017-12-05T12:19:51.738Z,51.53
2017-12-05T12:22:17.929Z,51.62
2017-12-05T12:24:44.181Z,51.56
2017-12-05T12:27:10.373Z,51.55
2017-12-05T12:29:36.642Z,51.42
2017-12-05T12:32:02.912Z,51.32
2017-12-05T12:34:29.120Z,50.63
2017-12-05T12:36:55.345Z,50.36
2017-12-05T12:39:21.579Z,50.14
2017-12-05T12:41:47.782Z,50.03
2017-12-05T12:44:14.036Z,49.91
2017-12-05T12:46:40.460Z,49.86
2017-12-05T12:49:06.666Z,49.78
2017-12-05T12:51:32.908Z,49.70
2017-12-05T12:53:59.119Z,49.60
2017-12-05T12:56:25.349Z,49.57
2017-12-05T12:58:51.581Z,49.57
2017-12-05T13:01:17.834Z,49.52
2017-12-05T13:03:44.017Z,49.42
2017-12-05T13:06:10.253Z,49.35
2017-12-05T13:08:36.476Z,49.32
2017-12-05T13:11:02.676Z,49.34
2017-12-05T13:13:28.941Z,49.26
2017-12-05T13:15:55.435Z,49.20
2017-12-05T13:18:21.646Z,49.09
2017-12-05T13:20:47.886Z,49.01
2017-12-05T13:23:14.095Z,48.95
2017-12-05T13:25:40.538Z,48.98
2017-12-05T13:28:06.790Z,48.98
2017-12-05T13:30:33.236Z,48.92
2017-12-05T13:32:59.431Z,48.89
2017-12-05T13:35:25.686Z,48.94
2017-12-05T13:37:52.122Z,49.08
2017-12-05T13:40:18.309Z,49.25
2017-12-05T13:42:44.577Z,49.22
2017-12-05T13:45:10.789Z,49.18
2017-12-05T13:47:36.978Z,49.14
2017-12-05T13:50:03.229Z,49.11
2017-12-05T13:52:29.472Z,49.09
2017-12-05T13:54:55.696Z,49.50
2017-12-05T13:57:22.107Z,49.62
2017-12-05T13:59:48.349Z,49.42
2017-12-05T14:02:14.573Z,49.26
2017-12-05T14:04:40.794Z,49.22
2017-12-05T14:07:07.073Z,49.20
2017-12-05T14:09:33.320Z,49.13
2017-12-05T14:11:59.570Z,49.08
2017-12-05T14:14:25.832Z,49.03
2017-12-05T14:16:52.032Z,49.00
2017-12-05T14:19:18.295Z,49.01
2017-12-05T14:21:44.494Z,49.08
2017-12-05T14:24:10.766Z,49.09
2017-12-05T14:26:37.074Z,49.09
2017-12-05T14:29:03.248Z,49.09
2017-12-05T14:31:29.456Z,49.09
2017-12-05T14:33:55.706Z,49.02
2017-12-05T14:36:21.887Z,49.00
2017-12-05T14:38:48.094Z,49.00
2017-12-05T14:41:14.362Z,49.04
2017-12-05T14:43:40.550Z,49.07
2017-12-05T14:46:06.821Z,49.04
2017-12-05T14:48:33.049Z,49.00
2017-12-05T14:50:59.228Z,49.04
2017-12-05T14:53:25.684Z,49.07
2017-12-05T14:55:51.939Z,48.97
2017-12-05T14:58:18.138Z,48.95
2017-12-05T15:00:44.408Z,48.93
2017-12-05T15:03:10.649Z,48.88
2017-12-05T15:05:36.838Z,48.90
2017-12-05T15:08:03.057Z,48.91
2017-12-05T15:10:29.311Z,48.92
2017-12-05T15:12:55.514Z,48.97
2017-12-05T15:15:21.708Z,48.95
2017-12-05T15:17:47.959Z,48.92
2017-12-05T15:20:14.148Z,48.87
2017-12-05T15:22:40.346Z,48.88
2017-12-05T15:25:06.596Z,48.84
2017-12-05T15:27:32.802Z,48.83
2017-12-05T15:29:58.996Z,48.84
2017-12-05T15:32:25.251Z,48.86
2017-12-05T15:34:51.428Z,48.84
2017-12-05T15:37:17.635Z,48.81
2017-12-05T15:39:44.143Z,48.82
2017-12-05T15:42:10.574Z,48.84
2017-12-05T15:44:36.766Z,48.84
2017-12-05T15:47:03.231Z,48.86
2017-12-05T15:49:29.484Z,48.82
2017-12-05T15:51:55.657Z,48.83
2017-12-05T15:54:21.949Z,48.87
2017-12-05T15:56:48.403Z,48.85
2017-12-05T15:59:14.587Z,48.83
2017-12-05T16:01:40.968Z,48.86
2017-12-05T16:04:07.205Z,48.82
2017-12-05T16:06:33.436Z,48.80
2017-12-05T16:08:59.735Z,48.82
2017-12-05T16:11:25.937Z,48.76
2017-12-05T16:13:52.141Z,48.71
2017-12-05T16:16:18.394Z,48.69
2017-12-05T16:18:44.576Z,48.73
2017-12-05T16:21:10.815Z,48.77
2017-12-05T16:23:37.060Z,48.75
2017-12-05T16:26:03.321Z,48.73
2017-12-05T16:28:29.526Z,48.72
2017-12-05T16:30:55.962Z,48.73
2017-12-05T16:33:22.217Z,48.68
2017-12-05T16:35:48.433Z,48.71
2017-12-05T16:38:14.641Z,48.75
2017-12-05T16:40:40.916Z,48.75
2017-12-05T16:43:07.442Z,48.76
2017-12-05T16:45:33.634Z,48.80
2017-12-05T16:47:59.890Z,48.79
2017-12-05T16:50:26.098Z,48.82
2017-12-05T16:52:52.332Z,48.87
2017-12-05T16:55:18.824Z,48.82
2017-12-05T16:57:45.007Z,48.84
2017-12-05T17:00:11.279Z,48.78
2017-12-05T17:02:37.788Z,48.84
2017-12-05T17:05:04.042Z,48.87
2017-12-05T17:07:30.220Z,49.15
2017-12-05T17:09:56.470Z,49.56
2017-12-05T17:12:23.890Z,49.72
2017-12-05T17:14:50.166Z,49.88
2017-12-05T17:17:16.453Z,49.84
2017-12-05T17:19:42.672Z,49.92
2017-12-05T17:22:09.190Z,49.94
2017-12-05T17:24:35.435Z,50.05
2017-12-05T17:27:01.632Z,50.01
2017-12-05T17:29:27.816Z,49.99
2017-12-05T17:31:54.081Z,50.00
2017-12-05T17:34:20.350Z,50.05
2017-12-05T17:36:46.650Z,49.95
2017-12-05T17:39:12.921Z,49.93
2017-12-05T17:41:39.114Z,49.93
2017-12-05T17:44:05.548Z,49.95
2017-12-05T17:46:31.803Z,50.13
2017-12-05T17:48:58.235Z,50.15
2017-12-05T17:51:24.440Z,49.95
2017-12-05T17:53:50.955Z,50.15
2017-12-05T17:56:17.294Z,50.17
2017-12-05T17:58:43.758Z,50.07
2017-12-05T18:01:10.249Z,50.06
2017-12-05T18:03:36.543Z,50.29
2017-12-05T18:06:02.813Z,50.16
2017-12-05T18:08:29.072Z,50.12
2017-12-05T18:10:55.298Z,50.14
2017-12-05T18:13:21.555Z,50.22
2017-12-05T18:15:47.805Z,50.29
2017-12-05T18:18:13.992Z,50.31
2017-12-05T18:20:40.213Z,50.48
2017-12-05T18:23:06.692Z,50.44
2017-12-05T18:25:32.927Z,50.81
2017-12-05T18:27:59.131Z,50.94
2017-12-05T18:30:25.440Z,50.81
2017-12-05T18:32:51.631Z,50.68
2017-12-05T18:35:17.821Z,50.57
2017-12-05T18:37:44.080Z,50.40
2017-12-05T18:40:10.287Z,50.54
2017-12-05T18:42:36.739Z,50.29
2017-12-05T18:45:09.085Z,50.02
2017-12-05T18:47:35.287Z,49.84
2017-12-05T18:50:01.493Z,49.80
2017-12-05T18:52:27.766Z,49.77
2017-12-05T18:54:53.972Z,50.05
2017-12-05T18:57:20.188Z,50.12
2017-12-05T18:59:46.453Z,50.11
2017-12-05T19:02:12.940Z,50.29
2017-12-05T19:04:39.254Z,50.30
2017-12-05T19:07:05.520Z,50.42
2017-12-05T19:09:31.711Z,50.38
2017-12-05T19:11:57.911Z,50.31
2017-12-05T19:14:24.197Z,50.48
2017-12-05T19:16:50.414Z,50.35
2017-12-05T19:19:16.620Z,50.07
2017-12-05T19:21:42.902Z,50.17
2017-12-05T19:24:09.103Z,50.16
2017-12-05T19:26:35.305Z,50.36
2017-12-05T19:29:01.861Z,50.33
2017-12-05T19:31:28.049Z,50.03
2017-12-05T19:33:54.258Z,49.91
2017-12-05T19:36:20.545Z,49.91
2017-12-05T19:38:46.748Z,50.15
2017-12-05T19:41:12.962Z,50.24
2017-12-05T19:43:39.215Z,50.28
2017-12-05T19:46:05.670Z,50.38
2017-12-05T19:48:31.860Z,50.34
2017-12-05T19:50:58.249Z,50.41
2017-12-05T19:53:24.456Z,50.36
2017-12-05T19:55:50.918Z,50.26
2017-12-05T19:58:17.412Z,50.27
2017-12-05T20:00:43.633Z,50.16
2017-12-05T20:03:09.849Z,49.95
2017-12-05T20:05:36.206Z,49.72
2017-12-05T20:08:02.430Z,49.61
2017-12-05T20:10:28.878Z,49.67
2017-12-05T20:12:55.120Z,50.23
2017-12-05T20:15:21.341Z,50.37
2017-12-05T20:17:47.538Z,50.47
2017-12-05T20:20:13.870Z,50.56
2017-12-05T20:22:40.103Z,50.55
2017-12-05T20:25:06.371Z,50.64
2017-12-05T20:27:32.681Z,50.67
2017-12-05T20:29:58.991Z,50.80
2017-12-05T20:32:25.248Z,50.85
2017-12-05T20:34:51.501Z,50.77
2017-12-05T20:37:17.713Z,50.90
2017-12-05T20:39:44.153Z,50.81
2017-12-05T20:42:10.475Z,50.93
2017-12-05T20:44:36.760Z,50.79
2017-12-05T20:47:03.016Z,50.71
2017-12-05T20:49:29.328Z,50.68
2017-12-05T20:51:55.600Z,50.82
2017-12-05T20:54:21.797Z,50.90
2017-12-05T20:56:48.056Z,50.76
2017-12-05T20:59:14.239Z,50.92
2017-12-05T21:01:40.433Z,50.85
2017-12-05T21:04:06.756Z,50.69
2017-12-05T21:06:33.013Z,50.64
2017-12-05T21:08:59.202Z,50.64
2017-12-05T21:11:25.424Z,50.65
2017-12-05T21:13:51.642Z,50.70
2017-12-05T21:16:17.796Z,50.75
2017-12-05T21:18:45.161Z,50.50
2017-12-05T21:21:11.362Z,50.70
2017-12-05T21:23:37.560Z,50.73
2017-12-05T21:26:03.816Z,50.64
2017-12-05T21:28:30.022Z,50.68
2017-12-05T21:30:56.296Z,50.83
2017-12-05T21:33:22.527Z,50.92
2017-12-05T21:35:48.715Z,50.88
2017-12-05T21:38:14.922Z,50.77
2017-12-05T21:40:41.152Z,50.77
2017-12-05T21:43:07.353Z,50.68
2017-12-05T21:45:33.537Z,50.64
2017-12-05T21:47:59.792Z,50.52
2017-12-05T21:50:26.217Z,50.50
2017-12-05T21:52:52.415Z,50.56
2017-12-05T21:55:18.667Z,50.51
2017-12-05T21:57:44.867Z,50.53
2017-12-05T22:00:11.091Z,50.58
2017-12-05T22:02:37.553Z,50.41
2017-12-05T22:05:03.750Z,50.43
2017-12-05T22:07:29.970Z,50.43
2017-12-05T22:09:56.218Z,50.47
2017-12-05T22:12:22.439Z,50.52
2017-12-05T22:14:48.615Z,50.63
2017-12-05T22:17:14.882Z,50.58
2017-12-05T22:19:41.065Z,50.67
2017-12-05T22:22:07.501Z,50.75
2017-12-05T22:24:33.764Z,50.52
2017-12-05T22:27:00.195Z,50.57
2017-12-05T22:29:26.358Z,50.55
2017-12-05T22:31:52.596Z,50.68
2017-12-05T22:34:18.777Z,50.72
2017-12-05T22:36:44.977Z,50.55
2017-12-05T22:39:11.208Z,50.63
2017-12-05T22:41:37.405Z,50.60
2017-12-05T22:44:03.586Z,50.56
2017-12-05T22:46:29.871Z,50.50
2017-12-05T22:48:56.080Z,50.53
2017-12-05T22:51:22.254Z,50.59
2017-12-05T22:53:48.518Z,50.56
2017-12-05T22:56:14.706Z,50.97
2017-12-05T22:58:40.896Z,50.45
2017-12-05T23:01:07.324Z,50.50
2017-12-05T23:03:33.520Z,51.12
2017-12-05T23:05:59.717Z,51.13
2017-12-05T23:08:26.011Z,51.09
2017-12-05T23:10:52.200Z,50.99
2017-12-05T23:13:18.564Z,50.94
2017-12-05T23:15:45.011Z,51.04
2017-12-05T23:18:11.218Z,51.01
2017-12-05T23:20:37.419Z,50.97
2017-12-05T23:23:03.668Z,50.99
2017-12-05T23:25:29.852Z,50.93
2017-12-05T23:27:56.033Z,50.88
2017-12-05T23:30:22.288Z,51.07
2017-12-05T23:32:48.741Z,50.84
2017-12-05T23:35:14.937Z,50.84
2017-12-05T23:37:41.181Z,50.73
2017-12-05T23:40:07.353Z,50.62
2017-12-05T23:42:33.789Z,50.52
2017-12-05T23:45:00.067Z,50.48
2017-12-05T23:47:26.261Z,50.41
2017-12-05T23:49:52.465Z,50.37
2017-12-05T23:52:18.702Z,50.40
2017-12-05T23:54:44.886Z,50.39
2017-12-05T23:57:11.084Z,50.50
2017-12-05T23:59:37.320Z,50.50
